createdAt,value
2018-01-04T00:00:38.605Z,76.60
2018-01-04T00:03:08.860Z,76.70
2018-01-04T00:05:38.024Z,77.00
2018-01-04T00:08:07.501Z,76.80
2018-01-04T00:10:36.314Z,76.60
2018-01-04T00:13:05.816Z,76.60
2018-01-04T00:15:34.694Z,76.50
2018-01-04T00:18:04.249Z,76.70
2018-01-04T00:23:03.631Z,76.80
2018-01-04T00:25:32.972Z,76.80
2018-01-04T00:28:02.266Z,76.50
2018-01-04T00:30:32.388Z,76.70
2018-01-04T00:33:01.686Z,76.40
2018-01-04T00:35:31.561Z,76.20
2018-01-04T00:38:00.387Z,76.30
2018-01-04T00:40:29.612Z,76.10
2018-01-04T00:42:58.863Z,76.00
2018-01-04T00:47:59.262Z,76.00
2018-01-04T00:50:28.649Z,75.90
2018-01-04T00:52:57.847Z,76.10
2018-01-04T00:55:27.139Z,76.30
2018-01-04T00:57:56.640Z,76.40
2018-01-04T01:00:26.412Z,76.30
2018-01-04T01:02:55.688Z,76.30
2018-01-04T01:05:24.539Z,76.80
2018-01-04T01:07:53.431Z,76.30
2018-01-04T01:10:22.938Z,76.60
2018-01-04T01:12:51.954Z,76.60
2018-01-04T01:15:21.686Z,76.60
2018-01-04T01:17:50.772Z,76.60
2018-01-04T01:20:20.239Z,76.50
2018-01-04T01:22:49.651Z,76.50
2018-01-04T01:25:19.296Z,77.00
2018-01-04T01:27:48.571Z,76.30
2018-01-04T01:30:17.618Z,76.50
2018-01-04T01:32:46.626Z,76.50
2018-01-04T01:35:16.403Z,76.70
2018-01-04T01:37:45.397Z,76.30
2018-01-04T01:40:15.267Z,76.50
2018-01-04T01:42:44.251Z,76.50
2018-01-04T01:45:14.419Z,76.40
2018-01-04T01:47:44.532Z,77.00
2018-01-04T01:50:13.768Z,76.30
2018-01-04T01:52:43.743Z,76.10
2018-01-04T01:55:13.766Z,76.30
2018-01-04T02:00:13.442Z,76.40
2018-01-04T02:02:42.751Z,76.80
2018-01-04T02:05:12.066Z,76.50
2018-01-04T02:07:41.250Z,76.60
2018-01-04T02:10:10.769Z,76.50
2018-01-04T02:12:40.363Z,76.30
2018-01-04T02:15:09.259Z,76.80
2018-01-04T02:17:38.145Z,76.50
2018-01-04T02:20:19.323Z,76.60
2018-01-04T02:26:03.851Z,76.30
2018-01-04T02:28:44.573Z,76.50
2018-01-04T02:31:25.350Z,77.00
2018-01-04T02:34:05.906Z,76.70
2018-01-04T02:36:46.983Z,77.00
2018-01-04T02:39:28.018Z,76.90
2018-01-04T02:42:08.421Z,76.90
2018-01-04T02:44:41.924Z,77.00
2018-01-04T02:47:10.814Z,77.10
2018-01-04T02:49:39.423Z,77.20
2018-01-04T02:52:08.850Z,76.80
2018-01-04T02:54:37.277Z,77.50
2018-01-04T02:57:05.759Z,77.10
2018-01-04T02:59:35.682Z,77.60
2018-01-04T03:02:04.978Z,76.90
2018-01-04T03:04:33.457Z,77.30
2018-01-04T03:07:01.940Z,77.10
2018-01-04T03:09:30.523Z,77.20
2018-01-04T03:11:59.412Z,77.50
2018-01-04T03:14:28.609Z,77.40
2018-01-04T03:16:58.524Z,78.40
2018-01-04T03:19:26.960Z,77.40
2018-01-04T03:22:01.837Z,77.30
2018-01-04T03:24:36.054Z,77.70
2018-01-04T03:27:11.701Z,78.20
2018-01-04T03:29:40.597Z,77.50
2018-01-04T03:32:16.037Z,77.50
2018-01-04T03:34:50.048Z,77.00
2018-01-04T03:40:25.119Z,77.70
2018-01-04T03:45:59.751Z,76.70
2018-01-04T03:48:28.647Z,77.10
2018-01-04T03:51:02.861Z,77.30
2018-01-04T03:53:37.079Z,76.70
2018-01-04T03:59:14.099Z,76.70
2018-01-04T04:01:48.087Z,76.70
2018-01-04T04:04:22.099Z,76.90
2018-01-04T04:06:56.120Z,76.90
2018-01-04T04:09:24.591Z,76.70
2018-01-04T04:11:53.842Z,76.60
2018-01-04T04:14:32.512Z,77.00
2018-01-04T04:17:01.301Z,76.70
2018-01-04T04:19:29.779Z,76.70
2018-01-04T04:21:58.669Z,76.50
2018-01-04T04:26:57.687Z,77.00
2018-01-04T04:29:26.163Z,76.60
2018-01-04T04:31:54.749Z,76.20
2018-01-04T04:34:23.231Z,76.80
2018-01-04T04:36:53.461Z,76.90
2018-01-04T04:39:22.041Z,76.20
2018-01-04T04:41:51.236Z,76.60
2018-01-04T04:44:19.723Z,76.00
2018-01-04T04:46:48.197Z,75.90
2018-01-04T04:49:17.401Z,76.70
2018-01-04T04:51:47.524Z,76.20
2018-01-04T04:54:16.831Z,76.40
2018-01-04T04:56:45.296Z,75.90
2018-01-04T04:59:15.216Z,76.00
2018-01-04T05:01:47.791Z,76.00
2018-01-04T05:04:16.138Z,75.30
2018-01-04T05:06:44.549Z,75.20
2018-01-04T05:09:12.870Z,75.00
2018-01-04T05:11:42.231Z,74.90
2018-01-04T05:14:11.019Z,75.20
2018-01-04T05:16:39.501Z,75.20
2018-01-04T05:19:07.980Z,75.30
2018-01-04T05:21:36.835Z,75.20
2018-01-04T05:24:05.168Z,75.00
2018-01-04T05:26:33.913Z,74.90
2018-01-04T05:29:04.973Z,75.70
2018-01-04T05:31:36.779Z,75.30
2018-01-04T05:34:05.828Z,75.40
2018-01-04T05:36:34.720Z,75.40
2018-01-04T05:39:03.407Z,74.80
2018-01-04T05:44:02.012Z,75.00
2018-01-04T05:46:30.357Z,75.10
2018-01-04T05:48:59.584Z,74.80
2018-01-04T05:51:28.476Z,75.80
2018-01-04T05:53:57.132Z,75.30
2018-01-04T05:56:26.559Z,76.10
2018-01-04T05:58:54.878Z,75.30
2018-01-04T06:01:24.242Z,75.40
2018-01-04T06:03:53.544Z,75.70
2018-01-04T06:06:23.460Z,76.00
2018-01-04T06:08:51.947Z,75.40
2018-01-04T06:11:20.691Z,75.40
2018-01-04T06:13:49.003Z,75.30
2018-01-04T06:16:18.203Z,75.00
2018-01-04T06:18:47.811Z,74.90
2018-01-04T06:21:16.402Z,75.10
2018-01-04T06:23:45.595Z,74.40
2018-01-04T06:26:14.489Z,74.50
2018-01-04T06:28:43.070Z,74.10
2018-01-04T06:31:12.065Z,74.40
2018-01-04T06:33:41.892Z,74.40
2018-01-04T06:36:11.500Z,74.10
2018-01-04T06:38:40.787Z,74.00
2018-01-04T06:41:10.914Z,75.10
2018-01-04T06:43:39.328Z,74.50
2018-01-04T06:46:08.422Z,74.90
2018-01-04T06:48:36.965Z,74.90
2018-01-04T06:51:05.794Z,75.20
2018-01-04T06:53:34.131Z,75.20
2018-01-04T06:56:02.819Z,75.70
2018-01-04T06:58:31.709Z,75.90
2018-01-04T07:03:30.313Z,75.80
2018-01-04T07:05:59.200Z,75.70
2018-01-04T07:08:27.987Z,75.70
2018-01-04T07:10:58.029Z,75.70
2018-01-04T07:13:27.080Z,75.40
2018-01-04T07:15:55.531Z,75.60
2018-01-04T07:18:24.666Z,75.40
2018-01-04T07:20:53.162Z,75.50
2018-01-04T07:23:22.967Z,76.90
2018-01-04T07:25:54.404Z,76.30
2018-01-04T07:28:23.321Z,75.80
2018-01-04T07:30:52.050Z,75.80
2018-01-04T07:33:20.526Z,75.80
2018-01-04T07:35:50.076Z,75.70
2018-01-04T07:38:19.989Z,76.00
2018-01-04T07:40:48.305Z,76.30
2018-01-04T07:43:17.486Z,76.10
2018-01-04T07:45:46.908Z,75.70
2018-01-04T07:48:16.646Z,75.60
2018-01-04T07:50:45.382Z,75.50
2018-01-04T07:53:15.097Z,75.40
2018-01-04T07:55:44.187Z,75.50
2018-01-04T07:58:13.549Z,75.40
2018-01-04T08:00:42.608Z,75.40
2018-01-04T08:03:12.782Z,74.80
2018-01-04T08:05:42.007Z,74.70
2018-01-04T08:08:11.098Z,75.20
2018-01-04T08:10:39.734Z,74.20
2018-01-04T08:13:12.979Z,74.10
2018-01-04T08:15:41.955Z,74.00
2018-01-04T08:18:11.024Z,74.10
2018-01-04T08:20:40.458Z,74.40
2018-01-04T08:23:09.159Z,73.10
2018-01-04T08:25:38.533Z,73.30
2018-01-04T08:28:08.414Z,73.30
2018-01-04T08:30:37.877Z,73.00
2018-01-04T08:33:07.031Z,72.80
2018-01-04T08:35:36.147Z,72.90
2018-01-04T08:38:05.576Z,72.50
2018-01-04T08:40:34.905Z,72.30
2018-01-04T08:43:04.183Z,71.90
2018-01-04T08:45:33.782Z,72.00
2018-01-04T08:48:03.295Z,71.90
2018-01-04T08:50:33.102Z,71.70
2018-01-04T08:53:01.717Z,71.90
2018-01-04T08:55:30.468Z,72.60
2018-01-04T08:58:00.327Z,71.50
2018-01-04T09:00:31.437Z,71.00
2018-01-04T09:03:02.738Z,71.40
2018-01-04T09:05:33.210Z,71.30
2018-01-04T09:08:03.072Z,71.80
2018-01-04T09:10:33.138Z,71.30
2018-01-04T09:13:03.767Z,71.10
2018-01-04T09:15:38.782Z,71.90
2018-01-04T09:18:07.787Z,70.70
2018-01-04T09:20:36.487Z,70.40
2018-01-04T09:23:05.069Z,70.50
2018-01-04T09:25:33.754Z,71.00
2018-01-04T09:28:03.098Z,70.10
2018-01-04T09:30:32.425Z,69.50
2018-01-04T09:33:01.804Z,69.20
2018-01-04T09:35:30.964Z,69.50
2018-01-04T09:38:00.420Z,69.00
2018-01-04T09:40:29.561Z,69.00
2018-01-04T09:42:58.254Z,69.10
2018-01-04T09:45:27.646Z,69.10
2018-01-04T09:47:57.750Z,69.70
2018-01-04T09:50:27.447Z,69.80
2018-01-04T09:52:56.405Z,69.20
2018-01-04T09:55:26.542Z,70.10
2018-01-04T09:57:56.305Z,69.40
2018-01-04T10:00:26.218Z,69.00
2018-01-04T10:02:55.601Z,68.70
2018-01-04T10:05:24.435Z,68.10
2018-01-04T10:07:54.120Z,68.80
2018-01-04T10:10:23.508Z,68.10
2018-01-04T10:12:52.714Z,68.30
2018-01-04T10:15:21.410Z,67.80
2018-01-04T10:17:50.780Z,68.10
2018-01-04T10:20:20.117Z,67.50
2018-01-04T10:22:49.876Z,67.30
2018-01-04T10:25:22.443Z,67.30
2018-01-04T10:27:53.792Z,67.50
2018-01-04T10:30:23.460Z,66.60
2018-01-04T10:32:52.550Z,66.50
2018-01-04T10:35:21.350Z,66.20
2018-01-04T10:37:50.706Z,66.20
2018-01-04T10:40:20.151Z,65.90
2018-01-04T10:42:49.656Z,65.60
2018-01-04T10:45:19.155Z,66.10
2018-01-04T10:47:48.661Z,65.00
2018-01-04T10:50:18.445Z,65.10
2018-01-04T10:52:47.877Z,64.20
2018-01-04T10:55:17.232Z,64.20
2018-01-04T10:57:47.404Z,63.80
2018-01-04T11:00:24.013Z,64.20
2018-01-04T11:02:53.552Z,63.40
2018-01-04T11:05:22.221Z,63.90
2018-01-04T11:07:51.559Z,63.70
2018-01-04T11:10:20.963Z,63.10
2018-01-04T11:12:50.741Z,63.20
2018-01-04T11:15:19.729Z,62.60
2018-01-04T11:17:48.927Z,62.50
2018-01-04T11:20:18.287Z,63.10
2018-01-04T11:22:47.477Z,62.70
2018-01-04T11:25:16.980Z,62.20
2018-01-04T11:27:46.485Z,62.20
2018-01-04T11:30:15.682Z,62.20
2018-01-04T11:32:45.187Z,62.10
2018-01-04T11:35:18.315Z,61.70
2018-01-04T11:37:49.736Z,61.60
2018-01-04T11:40:19.335Z,61.80
2018-01-04T11:42:48.743Z,62.40
2018-01-04T11:45:18.345Z,61.60
2018-01-04T11:47:47.852Z,62.10
2018-01-04T11:50:17.151Z,62.00
2018-01-04T11:52:46.665Z,62.00
2018-01-04T11:55:16.176Z,61.90
2018-01-04T11:57:45.467Z,61.50
2018-01-04T12:00:14.773Z,61.20
2018-01-04T12:02:43.964Z,61.70
2018-01-04T12:05:13.474Z,62.20
2018-01-04T12:07:42.856Z,61.60
2018-01-04T12:10:11.818Z,61.90
2018-01-04T12:12:40.623Z,62.10
2018-01-04T12:15:10.810Z,62.70
2018-01-04T12:17:40.406Z,61.20
2018-01-04T12:20:11.478Z,62.30
2018-01-04T12:22:43.840Z,61.20
2018-01-04T12:25:13.519Z,61.60
2018-01-04T12:27:42.959Z,61.70
2018-01-04T12:30:15.937Z,64.10
2018-01-04T12:32:47.228Z,61.20
2018-01-04T12:35:16.491Z,61.30
2018-01-04T12:37:46.320Z,61.90
2018-01-04T12:40:15.821Z,60.40
2018-01-04T12:42:45.266Z,60.30
2018-01-04T12:45:14.160Z,59.70
2018-01-04T12:47:43.199Z,59.70
2018-01-04T12:50:12.724Z,59.60
2018-01-04T12:52:42.159Z,60.30
2018-01-04T12:55:10.756Z,59.90
2018-01-04T12:57:40.044Z,60.20
2018-01-04T13:00:08.935Z,60.20
2018-01-04T13:02:38.850Z,59.60
2018-01-04T13:05:08.132Z,60.80
2018-01-04T13:07:37.582Z,61.30
2018-01-04T13:10:08.883Z,60.70
2018-01-04T13:12:37.894Z,60.00
2018-01-04T13:15:06.990Z,60.50
2018-01-04T13:17:39.646Z,60.40
2018-01-04T13:20:08.814Z,61.00
2018-01-04T13:22:38.277Z,61.60
2018-01-04T13:25:07.841Z,60.80
2018-01-04T13:27:36.684Z,61.30
2018-01-04T13:30:06.070Z,61.10
2018-01-04T13:32:36.302Z,62.00
2018-01-04T13:35:07.846Z,61.30
2018-01-04T13:37:36.638Z,61.60
2018-01-04T13:40:05.816Z,61.00
2018-01-04T13:42:41.461Z,60.70
2018-01-04T13:45:10.156Z,60.40
2018-01-04T13:47:39.627Z,61.00
2018-01-04T13:50:09.459Z,60.80
2018-01-04T13:52:38.578Z,62.20
2018-01-04T13:55:08.400Z,61.50
2018-01-04T13:57:39.052Z,59.50
2018-01-04T14:00:08.903Z,59.40
2018-01-04T14:02:37.760Z,59.10
2018-01-04T14:05:07.444Z,59.30
2018-01-04T14:07:36.964Z,60.20
2018-01-04T14:10:06.353Z,60.00
2018-01-04T14:12:36.166Z,59.40
2018-01-04T14:15:05.552Z,58.50
2018-01-04T14:17:34.570Z,58.40
2018-01-04T14:20:03.460Z,58.20
2018-01-04T14:22:33.169Z,58.30
2018-01-04T14:25:02.259Z,57.40
2018-01-04T14:27:31.481Z,56.80
2018-01-04T14:30:00.898Z,56.70
2018-01-04T14:32:30.159Z,56.10
2018-01-04T14:34:59.355Z,55.80
2018-01-04T14:37:28.048Z,55.50
2018-01-04T14:39:57.552Z,55.20
2018-01-04T14:42:26.508Z,55.00
2018-01-04T14:44:55.947Z,54.60
2018-01-04T14:47:26.549Z,55.50
2018-01-04T14:49:57.001Z,55.30
2018-01-04T14:52:25.593Z,55.60
2018-01-04T14:54:56.262Z,55.50
2018-01-04T14:57:26.179Z,55.70
2018-01-04T14:59:54.840Z,55.50
2018-01-04T15:02:32.260Z,56.10
2018-01-04T15:05:02.131Z,56.00
2018-01-04T15:07:31.434Z,56.40
2018-01-04T15:10:00.840Z,57.50
2018-01-04T15:12:29.933Z,55.30
2018-01-04T15:15:06.024Z,56.10
2018-01-04T15:17:35.540Z,55.30
2018-01-04T15:20:08.405Z,57.60
2018-01-04T15:22:38.253Z,55.60
2018-01-04T15:25:06.915Z,57.20
2018-01-04T15:27:35.764Z,55.90
2018-01-04T15:30:05.859Z,56.00
2018-01-04T15:32:35.301Z,56.50
2018-01-04T15:35:04.339Z,56.30
2018-01-04T15:37:33.580Z,58.10
2018-01-04T15:40:03.036Z,58.40
2018-01-04T15:42:32.182Z,55.60
2018-01-04T15:45:01.278Z,55.50
2018-01-04T15:47:31.212Z,55.10
2018-01-04T15:50:00.607Z,55.90
2018-01-04T15:52:29.630Z,55.50
2018-01-04T15:54:59.154Z,55.10
2018-01-04T15:57:28.806Z,55.00
2018-01-04T15:59:58.259Z,56.10
2018-01-04T16:02:29.253Z,56.50
2018-01-04T16:04:59.575Z,56.30
2018-01-04T16:07:28.665Z,56.70
2018-01-04T16:09:58.827Z,56.50
2018-01-04T16:12:28.501Z,58.00
2018-01-04T16:14:58.008Z,56.70
2018-01-04T16:17:28.071Z,57.60
2018-01-04T16:19:57.528Z,58.40
2018-01-04T16:22:26.915Z,58.90
2018-01-04T16:24:56.356Z,58.50
2018-01-04T16:27:25.850Z,58.40
2018-01-04T16:29:55.222Z,58.00
2018-01-04T16:32:24.441Z,58.90
2018-01-04T16:34:54.580Z,58.90
2018-01-04T16:37:24.025Z,58.20
2018-01-04T16:39:53.434Z,58.40
2018-01-04T16:42:24.698Z,58.50
2018-01-04T16:44:54.148Z,58.70
2018-01-04T16:47:24.270Z,59.90
2018-01-04T16:49:54.257Z,58.90
2018-01-04T16:52:23.762Z,58.30
2018-01-04T16:54:53.148Z,59.40
2018-01-04T16:57:24.505Z,58.40
2018-01-04T16:59:54.216Z,58.50
2018-01-04T17:02:23.617Z,60.20
2018-01-04T17:04:54.343Z,60.00
2018-01-04T17:07:24.884Z,59.10
2018-01-04T17:09:54.324Z,56.60
2018-01-04T17:12:23.677Z,60.10
2018-01-04T17:14:53.140Z,59.50
2018-01-04T17:17:23.172Z,60.10
2018-01-04T17:19:52.253Z,58.90
2018-01-04T17:24:52.119Z,58.60
2018-01-04T17:27:21.518Z,58.90
2018-01-04T17:29:52.089Z,61.00
2018-01-04T17:32:21.536Z,58.40
2018-01-04T17:34:51.092Z,60.90
2018-01-04T17:37:20.731Z,59.40
2018-01-04T17:39:50.544Z,58.50
2018-01-04T17:42:20.014Z,58.50
2018-01-04T17:44:49.929Z,60.40
2018-01-04T17:47:19.028Z,61.30
2018-01-04T17:49:52.734Z,62.60
2018-01-04T17:52:22.905Z,60.00
2018-01-04T17:54:56.913Z,58.90
2018-01-04T17:57:26.473Z,62.30
2018-01-04T17:59:57.249Z,63.10
2018-01-04T18:02:31.733Z,61.00
2018-01-04T18:05:01.998Z,59.50
2018-01-04T18:07:31.175Z,60.00
2018-01-04T18:10:02.506Z,59.90
2018-01-04T18:12:32.736Z,59.80
2018-01-04T18:15:02.981Z,59.90
2018-01-04T18:17:32.989Z,58.80
2018-01-04T18:20:02.447Z,60.40
2018-01-04T18:22:32.260Z,60.10
2018-01-04T18:25:03.149Z,59.00
2018-01-04T18:27:33.036Z,59.10
2018-01-04T18:30:02.955Z,60.20
2018-01-04T18:32:32.751Z,59.30
2018-01-04T18:35:02.692Z,59.50
2018-01-04T18:37:32.834Z,59.70
2018-01-04T18:40:03.356Z,59.80
2018-01-04T18:42:33.114Z,59.00
2018-01-04T18:45:04.715Z,59.20
2018-01-04T18:47:34.403Z,59.30
2018-01-04T18:50:04.029Z,59.30
2018-01-04T18:52:34.466Z,59.60
2018-01-04T18:55:03.759Z,59.60
2018-01-04T18:57:32.909Z,61.10
2018-01-04T19:00:01.757Z,60.50
2018-01-04T19:05:01.246Z,61.50
2018-01-04T19:07:30.569Z,61.00
2018-01-04T19:10:00.926Z,60.20
2018-01-04T19:12:30.549Z,61.00
2018-01-04T19:15:00.590Z,60.80
2018-01-04T19:17:30.309Z,60.50
2018-01-04T19:19:59.185Z,60.10
2018-01-04T19:22:29.736Z,62.20
2018-01-04T19:24:59.053Z,60.80
2018-01-04T19:27:28.740Z,60.90
2018-01-04T19:29:58.843Z,60.50
2018-01-04T19:32:28.953Z,60.70
2018-01-04T19:34:58.638Z,60.70
2018-01-04T19:37:28.314Z,60.70
2018-01-04T19:39:57.700Z,61.60
2018-01-04T19:42:27.092Z,61.00
2018-01-04T19:44:58.931Z,62.10
2018-01-04T19:47:29.714Z,61.60
2018-01-04T19:49:59.288Z,62.30
2018-01-04T19:52:28.704Z,61.40
2018-01-04T19:54:58.284Z,61.30
2018-01-04T19:57:27.517Z,61.40
2018-01-04T19:59:56.538Z,61.60
2018-01-04T20:02:25.610Z,61.60
2018-01-04T20:04:54.308Z,62.00
2018-01-04T20:07:23.313Z,61.90
2018-01-04T20:09:52.833Z,62.60
2018-01-04T20:12:22.198Z,62.40
2018-01-04T20:14:51.233Z,61.70
2018-01-04T20:17:20.693Z,61.40
2018-01-04T20:19:49.729Z,61.40
2018-01-04T20:22:19.154Z,61.30
2018-01-04T20:24:48.593Z,61.60
2018-01-04T20:27:18.093Z,61.20
2018-01-04T20:29:47.561Z,61.40
2018-01-04T20:32:17.106Z,62.50
2018-01-04T20:34:46.892Z,61.50
2018-01-04T20:37:16.912Z,61.30
2018-01-04T20:39:46.594Z,61.10
2018-01-04T20:42:15.770Z,61.20
2018-01-04T20:44:44.476Z,61.20
2018-01-04T20:47:13.110Z,61.00
2018-01-04T20:49:42.413Z,60.60
2018-01-04T20:52:11.503Z,60.90
2018-01-04T20:54:40.593Z,60.80
2018-01-04T20:57:09.507Z,61.10
2018-01-04T20:59:39.011Z,60.90
2018-01-04T21:02:09.278Z,61.40
2018-01-04T21:04:38.514Z,60.50
2018-01-04T21:07:07.567Z,60.50
2018-01-04T21:09:36.946Z,60.80
2018-01-04T21:12:05.665Z,61.00
2018-01-04T21:14:34.981Z,61.10
2018-01-04T21:17:04.026Z,61.50
2018-01-04T21:19:33.506Z,61.00
2018-01-04T21:22:02.167Z,61.10
2018-01-04T21:24:30.907Z,61.40
2018-01-04T21:29:30.715Z,61.40
2018-01-04T21:32:00.393Z,61.30
2018-01-04T21:34:30.583Z,62.40
2018-01-04T21:36:59.208Z,63.10
2018-01-04T21:39:28.981Z,63.40
2018-01-04T21:41:59.216Z,62.30
2018-01-04T21:44:28.335Z,61.30
2018-01-04T21:46:57.418Z,61.00
2018-01-04T21:49:26.504Z,61.00
2018-01-04T21:51:55.722Z,61.10
2018-01-04T21:54:25.165Z,61.10
2018-01-04T21:56:53.808Z,61.10
2018-01-04T21:59:22.622Z,61.20
2018-01-04T22:01:52.110Z,61.80
2018-01-04T22:04:21.779Z,61.20
2018-01-04T22:09:21.005Z,60.00
2018-01-04T22:11:51.151Z,60.90
2018-01-04T22:14:20.622Z,60.30
2018-01-04T22:16:50.157Z,60.00
2018-01-04T22:19:19.673Z,60.50
2018-01-04T22:21:48.702Z,60.40
2018-01-04T22:24:17.299Z,60.00
2018-01-04T22:26:46.507Z,59.80
2018-01-04T22:31:45.447Z,59.40
2018-01-04T22:34:14.478Z,59.50
2018-01-04T22:36:43.896Z,59.40
2018-01-04T22:39:13.175Z,59.00
2018-01-04T22:41:42.249Z,58.90
2018-01-04T22:44:11.601Z,59.10
2018-01-04T22:46:40.228Z,59.30
2018-01-04T22:49:09.644Z,58.90
2018-01-04T22:51:39.009Z,59.00
2018-01-04T22:54:07.680Z,59.10
2018-01-04T22:56:37.461Z,58.70
2018-01-04T22:59:06.915Z,58.90
2018-01-04T23:01:35.602Z,59.10
2018-01-04T23:04:05.155Z,60.10
2018-01-04T23:06:34.054Z,60.60
2018-01-04T23:09:03.648Z,59.50
2018-01-04T23:11:33.364Z,59.30
2018-01-04T23:14:02.130Z,59.50
2018-01-04T23:16:31.766Z,59.40
2018-01-04T23:19:01.424Z,59.60
2018-01-04T23:21:30.843Z,60.40
2018-01-04T23:24:01.141Z,60.20
2018-01-04T23:26:29.807Z,59.80
2018-01-04T23:28:59.291Z,60.40
2018-01-04T23:31:28.384Z,60.60
2018-01-04T23:33:57.423Z,60.20
2018-01-04T23:36:26.796Z,60.70
2018-01-04T23:44:24.246Z,59.90
2018-01-04T23:46:53.666Z,60.50
2018-01-04T23:49:23.190Z,59.90
2018-01-04T23:51:52.691Z,59.50
2018-01-04T23:54:21.412Z,60.00
2018-01-04T23:56:51.102Z,59.90
2018-01-04T23:59:20.563Z,59.80
